Terminal Aerodrome Forecast
Issued by NWS

Home | Current Version | Previous Version | Text Only | Print | Product List | Glossary On
Versions: 1 2 3 4 5 6 7 8 9 10 11 12
000
FTUS46 KSTO 040522
TAFSCK
TAF
KSCK 040522Z 0406/0506 29013KT P6SM SCT250
     FM040900 31007KT P6SM BKN250
     FM042300 29012KT P6SM BKN250=

USA.gov is the U.S. government's official web portal to all federal, state and local government web resources and services.